Milton, Pennsylvania
Current Conditions -  °F | °C
As of 7:53 AM on Wednesday 26 Nov 2014 (Local Time) from KSEG Reporting Station
Light Snow Light Snow  
Wind Chill: 31°   Ceiling: 1200
Heat Index: 36°   Visibility: 4mi
Dew Point: 32°   Wind: 6mph
Humidity: 86%   Direction: 50°NE
Pressure: 30.13"   Gusts: NA
Location:  41.02°N, 76.85°W
Report Text: KSEG 261253Z AUTO 05005KT 4SM -SN BR BKN012 OVC020 02/00 A3013 RMK AO2 RAB05E31SNB31 SLP208 P0003 T00220000
Loading
Personal Weather Stations






























Interactive Weather Map New forecast layout! Learn more

10-Day Weather Forecast

Advertisements
Track Severe Weather on mobile